Time;durP1;ratioP1;P1;durP2;ratioP2;P2;SDS_P1;SDS_P2;PMS_P1;PMS_P2;Temp;Humidity;BMP_temperature;BMP_pressure;BME280_temperature;BME280_humidity;BME280_pressure;Samples;Min_cycle;Max_cycle;Signal;HPM_P1;HPM_P2
2022/07/19 00:01:23;;;;;;;2.40;2.20;;;18.30;99.90;;;;;;4991778;28;20199;-75
2022/07/19 00:03:49;;;;;;;2.10;2.00;;;18.20;99.90;;;;;;4992545;28;20195;-75
2022/07/19 00:06:14;;;;;;;4.40;2.40;;;18.20;99.90;;;;;;4991741;28;20520;-75
2022/07/19 00:08:40;;;;;;;2.40;2.10;;;18.10;99.90;;;;;;4993320;28;20254;-75
2022/07/19 00:11:05;;;;;;;3.17;2.20;;;18.10;99.90;;;;;;4991362;28;20542;-75
2022/07/19 00:13:31;;;;;;;5.83;2.83;;;18.10;99.90;;;;;;4991596;28;20190;-75
2022/07/19 00:15:56;;;;;;;3.13;2.80;;;18.00;99.90;;;;;;4992068;28;20183;-75
2022/07/19 00:18:22;;;;;;;2.40;2.20;;;18.00;99.90;;;;;;4992768;28;20259;-75
2022/07/19 00:20:47;;;;;;;3.57;2.43;;;18.00;99.90;;;;;;4991840;28;20235;-75
2022/07/19 00:23:13;;;;;;;5.13;2.60;;;18.00;99.90;;;;;;4992075;28;20218;-73
2022/07/19 00:25:38;;;;;;;6.23;2.33;;;18.00;99.90;;;;;;4991489;28;20617;-75
2022/07/19 00:28:04;;;;;;;6.20;2.27;;;17.90;99.90;;;;;;4992199;28;20171;-75
2022/07/19 00:30:30;;;;;;;3.20;2.40;;;18.00;99.90;;;;;;4992226;28;20175;-75
2022/07/19 00:32:55;;;;;;;2.40;2.20;;;17.90;99.90;;;;;;4991490;28;20575;-75
2022/07/19 00:35:21;;;;;;;2.50;2.30;;;17.80;99.90;;;;;;4992138;28;20731;-75
2022/07/19 00:37:46;;;;;;;6.90;2.80;;;17.80;99.90;;;;;;4974108;28;20263;-75
2022/07/19 00:40:13;;;;;;;4.00;2.27;;;17.70;99.90;;;;;;4991772;28;20406;-75
2022/07/19 00:42:39;;;;;;;3.53;2.60;;;17.70;99.90;;;;;;4990914;28;20696;-76
2022/07/19 00:45:05;;;;;;;3.40;2.37;;;17.70;99.90;;;;;;4991795;28;20999;-75
2022/07/19 00:47:31;;;;;;;4.60;3.10;;;17.70;99.90;;;;;;4991110;28;20431;-75
2022/07/19 00:49:57;;;;;;;2.37;2.03;;;17.60;99.90;;;;;;4992012;28;20828;-76
2022/07/19 00:52:25;;;;;;;5.80;3.00;;;17.60;99.90;;;;;;4990746;28;20499;-74
2022/07/19 00:54:53;;;;;;;3.20;1.93;;;17.60;99.90;;;;;;4991655;28;20217;-75
2022/07/19 00:57:18;;;;;;;2.93;2.60;;;17.60;99.90;;;;;;4991364;28;20442;-75
2022/07/19 00:59:46;;;;;;;3.07;2.87;;;17.60;99.90;;;;;;4991224;28;20450;-75
2022/07/19 02:32:49;;;;;;;4.60;3.90;;;16.50;99.90;;;;;;5150755;23;20851;-74
2022/07/19 02:35:16;;;;;;;5.87;3.67;;;16.50;99.90;;;;;;4963783;28;20439;-74
2022/07/19 02:37:41;;;;;;;5.27;3.70;;;16.40;99.90;;;;;;4960344;28;20181;-74
2022/07/19 02:40:08;;;;;;;5.93;3.30;;;16.40;99.90;;;;;;4956158;28;20940;-75
2022/07/19 02:42:33;;;;;;;6.30;3.37;;;16.40;99.90;;;;;;4955158;29;20205;-74
2022/07/19 02:44:59;;;;;;;3.27;3.00;;;16.40;99.90;;;;;;4955212;29;20547;-74
2022/07/19 02:47:25;;;;;;;4.13;3.83;;;16.40;99.90;;;;;;4955743;29;20259;-74
2022/07/19 02:49:50;;;;;;;3.73;3.40;;;16.40;99.90;;;;;;4955928;29;20207;-73
2022/07/19 02:52:16;;;;;;;4.73;3.57;;;16.30;99.90;;;;;;4953016;28;20236;-74
2022/07/19 02:54:41;;;;;;;4.07;3.77;;;16.30;99.90;;;;;;4943202;29;20676;-74
2022/07/19 02:57:07;;;;;;;4.80;3.90;;;16.30;99.90;;;;;;4955571;29;20177;-74
2022/07/19 02:59:32;;;;;;;7.00;3.73;;;16.30;99.90;;;;;;4955619;29;20684;-74
2022/07/19 03:01:58;;;;;;;9.07;3.80;;;16.20;99.90;;;;;;4954309;28;20209;-74
2022/07/19 03:04:23;;;;;;;4.53;4.13;;;16.20;99.90;;;;;;4955321;29;20181;-74
2022/07/19 03:06:49;;;;;;;4.83;3.90;;;16.20;99.90;;;;;;4955436;29;20173;-75
2022/07/19 03:09:14;;;;;;;4.77;4.10;;;16.10;99.90;;;;;;4954725;29;20184;-74
2022/07/19 03:11:40;;;;;;;7.80;4.17;;;16.10;99.90;;;;;;4954920;28;20282;-75
2022/07/19 03:14:06;;;;;;;9.07;4.10;;;16.10;99.90;;;;;;4955201;29;20657;-74
2022/07/19 03:16:32;;;;;;;6.47;3.57;;;16.10;99.90;;;;;;4954893;29;20184;-75
2022/07/19 03:18:57;;;;;;;4.30;4.00;;;16.00;99.90;;;;;;4955310;28;20176;-74
2022/07/19 03:21:23;;;;;;;4.33;3.93;;;16.00;99.90;;;;;;4954368;28;20268;-74
2022/07/19 03:23:49;;;;;;;4.13;3.60;;;16.00;99.90;;;;;;4955237;28;20242;-74
2022/07/19 03:26:15;;;;;;;6.47;3.77;;;16.00;99.90;;;;;;4954524;28;20436;-74
2022/07/19 03:28:40;;;;;;;7.80;3.60;;;16.00;99.90;;;;;;4955237;29;20196;-75
2022/07/19 03:31:06;;;;;;;3.77;3.43;;;15.90;99.90;;;;;;4953660;28;20379;-75
2022/07/19 03:33:31;;;;;;;4.17;3.87;;;15.90;99.90;;;;;;4954617;29;20244;-74
2022/07/19 03:35:57;;;;;;;3.93;3.63;;;15.90;99.90;;;;;;4954782;29;20184;-75
2022/07/19 03:38:22;;;;;;;4.17;3.80;;;15.90;99.90;;;;;;4954902;28;20195;-74
2022/07/19 03:40:48;;;;;;;4.47;4.07;;;15.90;99.90;;;;;;4954320;28;20261;-74
2022/07/19 03:43:17;;;;;;;4.90;4.10;;;15.90;99.90;;;;;;4953752;29;20188;-74
2022/07/19 03:45:44;;;;;;;4.67;3.83;;;15.80;99.90;;;;;;4954865;28;20240;-74
2022/07/19 03:48:09;;;;;;;4.93;4.30;;;15.80;99.90;;;;;;4953448;28;20952;-76
2022/07/19 03:50:36;;;;;;;5.13;3.83;;;15.80;99.90;;;;;;4953739;28;20431;-70
2022/07/19 03:53:01;;;;;;;4.00;3.70;;;15.80;99.90;;;;;;4954640;28;20295;-73
2022/07/19 03:55:27;;;;;;;9.60;4.37;;;15.80;99.90;;;;;;4955119;29;20515;-71
2022/07/19 03:57:52;;;;;;;4.80;4.10;;;15.80;99.90;;;;;;4954690;29;20578;-69
2022/07/19 04:00:18;;;;;;;4.23;3.87;;;15.80;99.90;;;;;;4954970;29;20203;-72
2022/07/19 04:02:43;;;;;;;4.70;4.30;;;15.80;99.90;;;;;;4954068;28;20677;-71
2022/07/19 04:05:09;;;;;;;9.90;5.00;;;15.80;99.90;;;;;;4954184;29;20184;-71
2022/07/19 04:07:35;;;;;;;5.60;4.70;;;15.80;99.90;;;;;;4953744;29;20229;-71
2022/07/19 04:10:00;;;;;;;5.60;5.10;;;15.80;99.90;;;;;;4954255;29;20649;-70
2022/07/19 04:12:26;;;;;;;8.37;4.60;;;15.80;99.90;;;;;;4953530;28;20589;-71
2022/07/19 04:14:51;;;;;;;7.00;4.10;;;15.90;99.90;;;;;;4954483;29;20231;-69
2022/07/19 04:17:17;;;;;;;3.90;3.60;;;15.90;99.90;;;;;;4954027;29;20268;-71
2022/07/19 04:19:43;;;;;;;8.80;4.77;;;16.00;99.90;;;;;;4954366;29;20176;-71
2022/07/19 04:22:08;;;;;;;4.33;4.03;;;15.90;99.90;;;;;;4953432;28;20733;-70
2022/07/19 04:24:34;;;;;;;4.93;4.33;;;16.00;99.90;;;;;;4954163;29;20546;-72
2022/07/19 04:27:00;;;;;;;7.17;4.83;;;16.00;99.90;;;;;;4954165;29;20569;-71
2022/07/19 04:29:25;;;;;;;9.23;4.47;;;16.10;99.90;;;;;;4953820;28;20251;-71
2022/07/19 04:31:51;;;;;;;6.77;4.50;;;16.10;99.90;;;;;;4953463;28;20486;-72
2022/07/19 04:34:17;;;;;;;4.80;4.43;;;16.10;99.90;;;;;;4953883;29;20177;-71
2022/07/19 04:36:43;;;;;;;5.63;4.80;;;16.20;99.90;;;;;;4953461;29;20184;-71
2022/07/19 04:39:09;;;;;;;7.73;4.27;;;16.20;99.90;;;;;;4953324;28;20232;-71
2022/07/19 04:41:34;;;;;;;9.70;5.00;;;16.30;99.90;;;;;;4953118;28;20511;-71
2022/07/19 04:44:00;;;;;;;5.07;4.67;;;16.30;99.90;;;;;;4953714;29;20184;-71
2022/07/19 04:46:25;;;;;;;4.57;4.07;;;16.40;99.90;;;;;;4953511;29;20181;-71
2022/07/19 04:48:51;;;;;;;6.97;4.23;;;16.40;99.90;;;;;;4953776;28;20210;-71
2022/07/19 04:51:16;;;;;;;7.90;4.20;;;16.50;99.90;;;;;;4952956;28;20268;-70
2022/07/19 04:53:42;;;;;;;5.17;4.60;;;16.60;99.90;;;;;;4953662;29;20212;-72
2022/07/19 04:56:07;;;;;;;7.33;3.87;;;16.70;99.90;;;;;;4953745;29;20267;-71
2022/07/19 04:58:33;;;;;;;7.37;4.23;;;16.70;99.90;;;;;;4953391;28;20185;-71
2022/07/19 05:00:58;;;;;;;6.60;4.60;;;16.80;99.90;;;;;;4953095;28;20629;-71
2022/07/19 05:03:24;;;;;;;5.40;5.00;;;17.00;99.90;;;;;;4953329;29;20241;-69
2022/07/19 05:05:49;;;;;;;4.67;4.20;;;17.10;99.90;;;;;;4953316;29;20180;-73
2022/07/19 05:08:15;;;;;;;4.53;4.17;;;17.20;99.90;;;;;;4952197;29;20177;-72
2022/07/19 05:10:40;;;;;;;6.37;4.13;;;17.30;99.90;;;;;;4952321;28;20185;-73
2022/07/19 05:13:06;;;;;;;8.67;4.53;;;17.50;99.90;;;;;;4952565;29;20216;-73
2022/07/19 05:15:31;;;;;;;9.13;4.73;;;17.80;99.90;;;;;;4953079;29;20260;-70
2022/07/19 05:17:57;;;;;;;6.53;4.67;;;18.40;99.90;;;;;;4950118;29;20184;-73
2022/07/19 05:20:23;;;;;;;4.30;3.90;;;19.10;99.90;;;;;;4948420;29;20195;-71
2022/07/19 05:22:49;;;;;;;6.20;3.83;;;19.90;99.90;;;;;;4951333;28;20219;-73
2022/07/19 05:25:16;;;;;;;3.73;3.43;;;20.70;99.90;;;;;;4950860;29;20180;-72
2022/07/19 05:27:43;;;;;;;10.67;4.43;;;21.40;99.90;;;;;;4951237;28;20447;-72
2022/07/19 05:30:09;;;;;;;6.13;3.70;;;22.10;99.90;;;;;;4951220;28;20424;-72
2022/07/19 05:32:35;;;;;;;4.17;3.77;;;22.70;99.90;;;;;;4950622;28;20511;-73
2022/07/19 05:35:01;;;;;;;4.37;3.93;;;23.20;99.90;;;;;;4952465;29;20850;-73
2022/07/19 05:37:26;;;;;;;6.73;4.27;;;23.70;99.90;;;;;;4952334;28;20176;-73
2022/07/19 05:39:52;;;;;;;5.50;4.00;;;24.30;99.90;;;;;;4952000;29;20187;-70
2022/07/19 05:42:17;;;;;;;8.93;4.20;;;24.70;99.90;;;;;;4951794;28;20705;-73
2022/07/19 05:44:43;;;;;;;5.33;3.33;;;25.10;99.90;;;;;;4952582;29;20177;-73
2022/07/19 05:47:08;;;;;;;4.63;4.03;;;25.50;99.90;;;;;;4951688;29;20173;-73
2022/07/19 05:49:34;;;;;;;7.93;4.47;;;25.70;99.90;;;;;;4952389;29;20200;-73
2022/07/19 05:51:59;;;;;;;8.97;4.53;;;26.00;99.90;;;;;;4951643;28;20219;-73
2022/07/19 05:54:25;;;;;;;6.60;3.70;;;26.20;99.90;;;;;;4952657;29;20192;-73
2022/07/19 05:56:50;;;;;;;4.43;4.03;;;26.50;99.90;;;;;;4952290;29;20187;-73
2022/07/19 05:59:16;;;;;;;4.07;3.77;;;26.70;99.90;;;;;;4951931;29;20577;-73
2022/07/19 06:01:41;;;;;;;4.90;4.50;;;27.00;99.90;;;;;;4951024;28;20201;-73
2022/07/19 06:04:07;;;;;;;4.97;4.17;;;27.20;99.90;;;;;;4952818;29;20212;-73
2022/07/19 06:06:34;;;;;;;11.03;4.10;;;27.30;99.90;;;;;;4952847;29;20647;-73
2022/07/19 06:09:01;;;;;;;7.77;3.87;;;27.50;99.90;;;;;;4952490;28;20601;-71
2022/07/19 06:11:27;;;;;;;4.03;3.70;;;27.70;99.90;;;;;;4952981;28;20543;-73
2022/07/19 06:13:53;;;;;;;6.33;3.87;;;28.00;99.90;;;;;;4956075;28;20440;-70
2022/07/19 06:16:19;;;;;;;3.37;3.03;;;28.20;99.90;;;;;;4955363;28;20584;-73
2022/07/19 06:18:45;;;;;;;8.13;3.77;;;28.40;99.90;;;;;;4956261;28;20467;-73
2022/07/19 06:21:17;;;;;;;7.53;3.97;;;28.50;99.90;;;;;;4955396;28;20633;-72
2022/07/19 06:23:43;;;;;;;6.30;3.63;;;28.80;99.90;;;;;;4956037;28;20179;-73
2022/07/19 06:26:10;;;;;;;5.07;3.10;;;29.00;99.90;;;;;;4956120;29;20781;-72
2022/07/19 06:28:36;;;;;;;5.43;3.50;;;29.10;99.90;;;;;;4956263;28;20177;-73
2022/07/19 06:31:01;;;;;;;10.33;3.60;;;29.30;99.90;;;;;;4954652;28;20442;-73
2022/07/19 06:33:27;;;;;;;7.70;3.30;;;29.50;99.90;;;;;;4955604;29;20586;-73
2022/07/19 06:35:53;;;;;;;7.50;3.17;;;29.80;99.90;;;;;;4955996;28;20306;-72
2022/07/19 06:38:19;;;;;;;4.70;3.57;;;29.70;99.90;;;;;;4955844;29;20180;-73
2022/07/19 06:40:44;;;;;;;5.10;3.33;;;29.80;99.90;;;;;;4955330;28;20172;-72
2022/07/19 06:43:10;;;;;;;7.90;3.20;;;30.00;99.90;;;;;;4955741;28;20235;-72
2022/07/19 06:45:36;;;;;;;4.63;3.47;;;30.10;99.90;;;;;;4955467;29;20173;-72
2022/07/19 06:48:02;;;;;;;3.80;3.20;;;30.30;99.90;;;;;;4955640;28;20181;-73
2022/07/19 06:50:27;;;;;;;3.33;2.90;;;30.60;99.90;;;;;;4955507;29;20637;-72
2022/07/19 06:52:53;;;;;;;6.33;3.20;;;30.60;99.40;;;;;;4955015;29;20216;-71
2022/07/19 06:55:18;;;;;;;12.40;3.37;;;30.70;98.70;;;;;;4955831;29;20177;-73
2022/07/19 06:57:44;;;;;;;6.30;3.40;;;31.00;99.00;;;;;;4954797;29;20228;-73
2022/07/19 07:00:11;;;;;;;5.80;3.23;;;31.30;99.30;;;;;;4955448;29;20709;-74
2022/07/19 07:02:37;;;;;;;8.83;3.53;;;31.60;97.70;;;;;;4954401;28;20536;-73
2022/07/19 07:05:04;;;;;;;4.90;2.97;;;31.90;97.60;;;;;;4953982;29;20416;-72
2022/07/19 07:07:30;;;;;;;9.17;3.80;;;32.00;97.40;;;;;;4954017;29;20416;-72
2022/07/19 07:09:56;;;;;;;9.10;3.60;;;32.20;95.10;;;;;;4954187;29;20424;-72
2022/07/19 07:12:21;;;;;;;4.60;3.20;;;32.30;95.20;;;;;;4953899;29;20303;-73
2022/07/19 07:14:47;;;;;;;8.40;3.50;;;32.40;94.40;;;;;;4954782;29;20185;-73
2022/07/19 07:17:12;;;;;;;3.87;3.10;;;32.60;93.70;;;;;;4954806;29;20176;-70
2022/07/19 07:19:38;;;;;;;4.27;3.80;;;32.60;91.70;;;;;;4954447;29;20650;-73
2022/07/19 07:22:03;;;;;;;4.57;3.10;;;32.60;91.10;;;;;;4954386;28;20581;-73
2022/07/19 07:24:29;;;;;;;9.33;3.53;;;32.60;91.70;;;;;;4955119;29;20185;-72
2022/07/19 07:26:54;;;;;;;5.53;3.20;;;32.70;89.60;;;;;;4954307;29;20185;-73
2022/07/19 07:29:20;;;;;;;4.67;3.70;;;32.60;90.00;;;;;;4954592;29;20177;-73
2022/07/19 07:31:46;;;;;;;7.77;3.90;;;32.90;90.10;;;;;;4953935;29;20234;-72
2022/07/19 07:34:11;;;;;;;4.37;3.87;;;33.20;90.10;;;;;;4954603;29;20180;-71
2022/07/19 07:36:37;;;;;;;4.53;3.27;;;33.20;88.70;;;;;;4954298;29;20181;-72
2022/07/19 07:39:03;;;;;;;6.30;3.73;;;33.20;86.00;;;;;;4954767;29;20180;-73
2022/07/19 07:41:28;;;;;;;6.73;2.93;;;33.20;88.00;;;;;;4952668;29;20200;-72
2022/07/19 07:43:54;;;;;;;8.00;3.27;;;33.20;86.10;;;;;;4954547;28;20669;-72
2022/07/19 07:46:19;;;;;;;6.50;3.87;;;33.20;85.40;;;;;;4954433;29;20272;-73
2022/07/19 07:48:45;;;;;;;10.20;3.10;;;33.40;85.40;;;;;;4954135;29;20181;-73
2022/07/19 07:51:10;;;;;;;6.90;3.20;;;33.40;83.80;;;;;;4953558;29;20205;-72
2022/07/19 07:53:36;;;;;;;6.33;2.83;;;33.30;83.60;;;;;;4954520;29;20179;-73
2022/07/19 07:56:02;;;;;;;3.33;3.03;;;33.40;83.00;;;;;;4954338;29;20256;-74
2022/07/19 07:58:27;;;;;;;15.63;3.10;;;33.50;79.80;;;;;;4954450;28;20176;-73
2022/07/19 08:00:53;;;;;;;4.30;2.77;;;33.50;79.40;;;;;;4953013;29;20181;-72
2022/07/19 08:03:18;;;;;;;2.97;2.27;;;33.40;78.40;;;;;;4954083;29;20243;-74
2022/07/19 08:05:47;;;;;;;3.17;2.10;;;33.50;75.20;;;;;;4955733;29;20204;-72
2022/07/19 08:08:13;;;;;;;5.43;2.10;;;33.50;75.20;;;;;;4953855;28;20191;-70
2022/07/19 08:10:39;;;;;;;3.57;1.90;;;33.60;75.80;;;;;;4953542;29;20417;-73
2022/07/19 08:13:04;;;;;;;6.40;2.33;;;33.90;73.20;;;;;;4953758;29;20519;-72
2022/07/19 08:15:30;;;;;;;5.53;2.70;;;34.00;73.10;;;;;;4952787;29;20184;-73
2022/07/19 08:17:55;;;;;;;4.80;1.97;;;33.90;72.80;;;;;;4953355;29;20250;-73
2022/07/19 08:20:21;;;;;;;7.40;2.57;;;33.70;72.40;;;;;;4954028;29;20256;-72
2022/07/19 08:22:46;;;;;;;5.23;1.90;;;33.60;72.20;;;;;;4953119;29;20299;-72
2022/07/19 08:25:16;;;;;;;2.50;1.70;;;33.90;72.20;;;;;;4953869;29;20636;-69
2022/07/19 08:27:42;;;;;;;2.17;2.03;;;33.90;70.30;;;;;;4953539;28;20221;-73
2022/07/19 08:30:09;;;;;;;2.67;1.80;;;34.10;69.30;;;;;;4953229;29;20444;-73
2022/07/19 08:32:34;;;;;;;3.97;1.87;;;34.10;70.60;;;;;;4952795;28;20464;-72
2022/07/19 08:35:00;;;;;;;3.30;2.10;;;34.30;70.50;;;;;;4953163;28;20412;-73
2022/07/19 08:37:25;;;;;;;1.80;1.70;;;34.50;68.10;;;;;;4953442;29;20232;-72
2022/07/19 08:39:51;;;;;;;3.13;1.40;;;34.70;67.70;;;;;;4953842;28;20610;-73
2022/07/19 08:42:20;;;;;;;1.73;1.63;;;34.40;65.40;;;;;;4952794;29;20658;-71
2022/07/19 08:44:54;;;;;;;1.90;1.80;;;34.20;65.50;;;;;;4952808;29;20172;-73
2022/07/19 08:47:21;;;;;;;2.40;1.23;;;34.10;64.60;;;;;;4953170;29;20921;-73
2022/07/19 08:49:47;;;;;;;5.23;1.50;;;34.50;65.00;;;;;;4953329;29;20761;-73
2022/07/19 08:52:12;;;;;;;5.93;1.80;;;34.50;62.80;;;;;;4952407;29;20464;-71
2022/07/19 08:54:39;;;;;;;4.30;1.63;;;34.30;62.90;;;;;;4953375;29;20416;-73
2022/07/19 08:59:49;;;;;;;4.57;1.83;;;34.50;62.80;;;;;;4953403;29;20419;-73
2022/07/19 09:02:14;;;;;;;10.93;1.80;;;35.10;62.80;;;;;;4952216;29;20432;-73
2022/07/19 09:04:40;;;;;;;5.07;1.70;;;35.20;61.00;;;;;;4953460;29;20184;-73
2022/07/19 09:07:06;;;;;;;3.17;1.20;;;35.40;61.50;;;;;;4953101;29;20487;-73
2022/07/19 09:09:39;;;;;;;1.60;1.50;;;35.70;61.40;;;;;;4952270;29;20424;-69
2022/07/19 09:12:05;;;;;;;3.23;2.20;;;35.80;60.40;;;;;;4952154;29;20216;-73
2022/07/19 09:14:36;;;;;;;2.87;1.87;;;36.30;61.10;;;;;;4953227;28;20416;-74
2022/07/19 09:17:11;;;;;;;1.90;1.80;;;36.70;60.60;;;;;;4952823;29;20495;-73
2022/07/19 09:19:39;;;;;;;3.47;2.30;;;37.00;61.10;;;;;;4952427;29;20770;-73
2022/07/19 09:22:06;;;;;;;3.60;1.80;;;37.50;59.50;;;;;;4952034;29;20432;-73
2022/07/19 09:24:34;;;;;;;4.73;1.77;;;37.40;59.30;;;;;;4952625;28;20899;-70
2022/07/19 09:27:08;;;;;;;2.70;2.13;;;37.50;57.80;;;;;;4952730;29;20423;-74
2022/07/19 09:29:36;;;;;;;4.43;1.77;;;37.50;57.40;;;;;;4952410;29;20416;-72
2022/07/19 09:32:18;;;;;;;3.60;2.00;;;37.50;57.60;;;;;;4951548;29;20958;-73
2022/07/19 09:35:03;;;;;;;3.03;1.83;;;37.20;57.20;;;;;;4953142;29;21025;-73
2022/07/19 09:37:31;;;;;;;1.70;1.60;;;37.20;56.50;;;;;;4952653;29;20413;-73
2022/07/19 09:40:05;;;;;;;2.80;2.10;;;36.80;56.20;;;;;;4952594;29;20409;-73
2022/07/19 09:42:39;;;;;;;4.83;2.70;;;37.00;56.50;;;;;;4951357;29;20535;-73
2022/07/19 09:45:08;;;;;;;1.93;1.70;;;37.50;56.40;;;;;;4952028;28;20474;-73
2022/07/19 09:47:37;;;;;;;3.47;2.50;;;37.60;55.30;;;;;;4952100;29;20428;-73
2022/07/19 09:50:09;;;;;;;7.33;2.30;;;37.90;55.50;;;;;;4952597;28;20520;-73
2022/07/19 09:52:35;;;;;;;2.33;2.13;;;37.70;54.80;;;;;;4951199;29;20460;-73
2022/07/19 09:55:06;;;;;;;7.63;2.30;;;37.70;54.40;;;;;;4952635;29;20419;-73
2022/07/19 09:57:35;;;;;;;4.27;2.20;;;37.70;54.80;;;;;;4952626;29;20412;-73
2022/07/19 10:00:02;;;;;;;3.33;1.97;;;37.50;55.10;;;;;;4953273;29;20408;-72
2022/07/19 10:02:29;;;;;;;4.70;1.97;;;37.70;55.10;;;;;;4953402;29;20434;-74
2022/07/19 10:04:56;;;;;;;3.70;2.50;;;37.80;53.40;;;;;;4952935;29;20551;-73
2022/07/19 10:07:23;;;;;;;3.60;2.00;;;37.20;54.50;;;;;;4952217;29;20578;-73
2022/07/19 10:09:50;;;;;;;2.90;2.53;;;36.70;54.40;;;;;;4952282;29;20435;-74
2022/07/19 10:12:16;;;;;;;3.23;2.30;;;37.00;54.00;;;;;;4951415;29;20805;-73
2022/07/19 10:14:42;;;;;;;2.57;2.33;;;37.00;54.30;;;;;;4951920;29;20444;-74
2022/07/19 10:17:32;;;;;;;3.70;2.00;;;36.80;53.30;;;;;;4951943;29;20263;-73
2022/07/19 10:19:58;;;;;;;2.40;2.10;;;36.60;53.60;;;;;;4952401;28;20177;-73
2022/07/19 10:22:25;;;;;;;3.03;2.47;;;36.50;53.20;;;;;;4950962;29;20454;-72
2022/07/19 10:25:16;;;;;;;4.23;2.20;;;36.50;53.60;;;;;;4952323;29;20795;-72
2022/07/19 10:27:44;;;;;;;5.17;2.50;;;36.70;53.80;;;;;;4951927;29;20965;-73
2022/07/19 10:30:10;;;;;;;2.70;2.50;;;36.70;53.00;;;;;;4951979;28;20448;-72
2022/07/19 10:32:37;;;;;;;6.63;2.93;;;36.20;53.20;;;;;;4951217;29;20523;-73
2022/07/19 10:35:27;;;;;;;4.43;2.50;;;36.00;53.60;;;;;;4951999;29;20254;-72
2022/07/19 10:38:13;;;;;;;2.23;2.00;;;35.90;53.50;;;;;;4952510;29;20412;-72
2022/07/19 10:40:46;;;;;;;3.60;2.73;;;35.80;53.80;;;;;;4952889;29;21116;-73
2022/07/19 10:43:16;;;;;;;4.93;2.00;;;35.80;53.70;;;;;;4952329;28;20924;-70
2022/07/19 10:45:55;;;;;;;1.97;1.83;;;36.20;53.40;;;;;;4952126;28;20440;-74
2022/07/19 10:48:50;;;;;;;2.93;2.60;;;36.60;53.40;;;;;;4952574;29;20822;-74
2022/07/19 10:51:29;;;;;;;3.10;1.93;;;36.70;52.70;;;;;;4951541;29;20804;-73
2022/07/19 10:54:00;;;;;;;3.10;2.30;;;36.60;53.30;;;;;;4952176;28;20412;-74
2022/07/19 10:56:34;;;;;;;4.47;2.43;;;36.90;52.60;;;;;;4951502;28;20412;-73
2022/07/19 10:59:03;;;;;;;4.00;2.80;;;36.90;52.30;;;;;;4955527;28;20408;-72
2022/07/19 11:01:32;;;;;;;2.80;2.60;;;36.60;51.80;;;;;;4954985;28;20464;-73
2022/07/19 11:04:28;;;;;;;3.80;2.67;;;36.20;52.50;;;;;;4955488;29;20422;-74
2022/07/19 11:07:10;;;;;;;3.23;2.53;;;36.30;53.40;;;;;;4955270;29;20823;-73
2022/07/19 11:09:44;;;;;;;2.57;2.27;;;36.50;52.90;;;;;;4954279;29;20835;-73
2022/07/19 11:12:19;;;;;;;3.50;2.47;;;36.70;52.50;;;;;;4953951;28;20467;-73
2022/07/19 11:14:45;;;;;;;3.23;2.33;;;36.30;52.70;;;;;;4955239;29;20408;-73
2022/07/19 11:17:10;;;;;;;4.87;4.13;;;36.00;53.30;;;;;;4954803;29;20924;-71
2022/07/19 11:19:36;;;;;;;3.93;2.70;;;36.10;53.30;;;;;;4955188;29;20251;-73
2022/07/19 11:22:02;;;;;;;3.33;2.47;;;35.90;53.30;;;;;;4953799;29;20193;-73
2022/07/19 11:24:27;;;;;;;4.10;2.53;;;35.90;53.40;;;;;;4954987;29;20177;-73
2022/07/19 11:26:54;;;;;;;3.60;2.50;;;35.90;52.80;;;;;;4954890;29;20676;-70
2022/07/19 11:29:20;;;;;;;2.70;2.50;;;36.20;53.50;;;;;;4954730;29;20180;-73
2022/07/19 11:31:47;;;;;;;3.33;2.57;;;36.20;53.90;;;;;;4953897;28;20938;-73
2022/07/19 11:34:13;;;;;;;4.20;2.90;;;36.30;52.70;;;;;;4954319;29;20408;-71
2022/07/19 11:36:38;;;;;;;7.23;2.40;;;36.10;52.50;;;;;;4954741;29;20416;-73
2022/07/19 11:39:04;;;;;;;4.40;2.30;;;36.00;52.40;;;;;;4954619;29;20256;-73
2022/07/19 11:41:31;;;;;;;5.60;2.43;;;36.00;51.20;;;;;;4954072;29;20247;-73
2022/07/19 11:44:01;;;;;;;2.47;1.97;;;35.60;50.40;;;;;;4954761;29;20181;-72
2022/07/19 11:46:38;;;;;;;6.67;2.80;;;35.60;52.40;;;;;;4953829;29;20412;-72
2022/07/19 11:49:06;;;;;;;3.00;2.50;;;35.40;52.70;;;;;;4953547;28;20412;-73
2022/07/19 11:51:33;;;;;;;5.37;2.67;;;35.30;53.20;;;;;;4953986;29;20464;-71
2022/07/19 11:54:00;;;;;;;6.93;2.77;;;35.40;52.50;;;;;;4955018;29;20469;-75
2022/07/19 11:56:29;;;;;;;2.70;2.50;;;35.50;53.00;;;;;;4954866;29;20404;-74
2022/07/19 11:58:57;;;;;;;3.33;2.30;;;35.30;52.40;;;;;;4954467;28;20412;-73
2022/07/19 12:01:34;;;;;;;6.63;2.97;;;35.50;53.00;;;;;;4954091;29;20484;-74
2022/07/19 12:04:03;;;;;;;4.63;2.37;;;35.60;53.30;;;;;;4954780;29;20423;-74
2022/07/19 12:06:59;;;;;;;2.47;2.27;;;35.70;52.50;;;;;;4954682;28;20419;-74
2022/07/19 12:09:28;;;;;;;5.13;2.23;;;35.60;52.10;;;;;;4952839;28;20428;-75
2022/07/19 12:11:55;;;;;;;4.50;2.80;;;35.50;52.10;;;;;;4954006;29;20460;-74
2022/07/19 12:14:27;;;;;;;4.57;2.80;;;35.50;52.30;;;;;;4954757;29;20420;-74
2022/07/19 12:17:12;;;;;;;3.57;2.60;;;35.60;52.70;;;;;;4954396;29;20416;-72
2022/07/19 12:19:40;;;;;;;6.10;3.43;;;35.40;52.50;;;;;;4954107;29;20751;-74
2022/07/19 12:22:06;;;;;;;3.13;2.47;;;35.20;52.90;;;;;;4953677;29;20916;-74
2022/07/19 12:24:42;;;;;;;3.47;2.20;;;35.20;53.30;;;;;;4954503;28;20424;-72
2022/07/19 12:27:09;;;;;;;4.93;2.27;;;34.90;53.10;;;;;;4954377;29;20507;-74
2022/07/19 12:29:46;;;;;;;4.73;3.07;;;34.60;53.60;;;;;;4954044;28;20424;-73
2022/07/19 12:32:15;;;;;;;3.90;2.70;;;34.60;53.40;;;;;;4953234;29;20468;-71
2022/07/19 12:34:47;;;;;;;3.07;2.67;;;34.60;54.10;;;;;;4954059;28;20918;-74
2022/07/19 12:37:24;;;;;;;3.20;2.43;;;34.60;53.90;;;;;;4953544;29;20778;-73
2022/07/19 12:40:05;;;;;;;4.90;3.53;;;34.40;54.20;;;;;;4954024;29;20691;-75
2022/07/19 12:42:59;;;;;;;3.40;2.97;;;34.50;53.50;;;;;;4953459;28;20443;-74
2022/07/19 12:45:29;;;;;;;4.70;2.80;;;34.50;54.00;;;;;;4954010;28;20423;-74
2022/07/19 12:47:55;;;;;;;10.10;2.80;;;34.50;53.40;;;;;;4953476;29;20420;-75
2022/07/19 12:50:24;;;;;;;3.40;3.10;;;34.40;52.90;;;;;;4953493;29;20906;-74
2022/07/19 12:52:55;;;;;;;3.30;3.00;;;34.50;52.90;;;;;;4954328;29;20208;-75
2022/07/19 12:55:21;;;;;;;7.97;2.70;;;34.40;53.80;;;;;;4954836;29;20405;-74
2022/07/19 12:57:48;;;;;;;6.00;2.83;;;34.40;53.90;;;;;;4954599;29;20408;-75
2022/07/19 13:00:15;;;;;;;4.77;2.80;;;34.40;54.00;;;;;;4952965;29;20420;-75
2022/07/19 13:02:41;;;;;;;3.40;3.10;;;34.30;54.30;;;;;;4953025;28;20440;-74
2022/07/19 13:05:06;;;;;;;4.80;3.10;;;34.30;54.40;;;;;;4953626;29;20424;-74
2022/07/19 13:07:32;;;;;;;6.23;2.70;;;34.40;55.10;;;;;;4953323;29;20177;-72
2022/07/19 13:09:58;;;;;;;2.77;2.57;;;34.50;54.60;;;;;;4952920;29;20240;-74
2022/07/19 13:12:23;;;;;;;5.33;3.20;;;34.70;54.50;;;;;;4952453;29;20205;-74
2022/07/19 13:14:49;;;;;;;3.53;3.30;;;34.60;54.50;;;;;;4953463;29;20181;-74
2022/07/19 13:17:14;;;;;;;6.07;3.67;;;34.50;53.90;;;;;;4952999;29;20188;-73
2022/07/19 13:19:40;;;;;;;3.30;3.10;;;34.40;54.40;;;;;;4953081;28;20189;-74
2022/07/19 13:22:06;;;;;;;3.30;3.00;;;34.60;54.60;;;;;;4952156;29;20608;-74
2022/07/19 13:24:32;;;;;;;3.40;3.10;;;34.40;54.80;;;;;;4953302;29;20212;-71
2022/07/19 13:26:58;;;;;;;9.10;3.17;;;34.60;55.50;;;;;;4953139;29;20444;-75
2022/07/19 13:29:24;;;;;;;5.60;3.10;;;34.60;54.50;;;;;;4953102;29;20181;-75
2022/07/19 13:31:50;;;;;;;4.17;2.53;;;34.60;53.40;;;;;;4951484;29;20331;-74
2022/07/19 13:34:16;;;;;;;2.90;2.70;;;34.40;53.50;;;;;;4952457;29;20799;-74
2022/07/19 13:36:42;;;;;;;4.53;2.70;;;34.40;53.70;;;;;;4952770;28;20417;-75
2022/07/19 13:39:08;;;;;;;3.30;3.00;;;34.50;53.80;;;;;;4951483;29;20177;-75
2022/07/19 13:41:36;;;;;;;6.23;3.20;;;34.60;53.50;;;;;;4952033;29;20976;-73
2022/07/19 13:44:02;;;;;;;4.23;2.80;;;34.70;53.70;;;;;;4951148;29;20425;-75
2022/07/19 13:46:27;;;;;;;11.30;3.50;;;34.60;54.10;;;;;;4952103;29;20432;-75
2022/07/19 13:48:53;;;;;;;3.33;3.07;;;34.40;54.30;;;;;;4952915;29;20653;-74
2022/07/19 13:51:18;;;;;;;5.93;3.03;;;34.50;54.80;;;;;;4951993;29;20211;-74
2022/07/19 13:53:44;;;;;;;5.60;3.00;;;34.60;55.10;;;;;;4952959;29;20634;-75
2022/07/19 13:56:09;;;;;;;5.70;3.03;;;34.60;54.80;;;;;;4951585;29;20293;-74
2022/07/19 13:58:35;;;;;;;3.20;2.70;;;34.70;54.40;;;;;;4952182;29;20560;-75
2022/07/19 14:01:01;;;;;;;6.57;2.43;;;34.70;53.70;;;;;;4952100;28;20215;-75
2022/07/19 14:03:26;;;;;;;3.90;2.90;;;34.70;53.70;;;;;;4952906;29;20200;-74
2022/07/19 14:05:52;;;;;;;3.17;2.33;;;34.60;53.90;;;;;;4952396;29;20200;-73
2022/07/19 14:08:18;;;;;;;4.40;3.10;;;34.60;54.00;;;;;;4952687;29;20594;-74
2022/07/19 14:10:43;;;;;;;6.80;3.40;;;34.60;54.90;;;;;;4951900;29;20181;-75
2022/07/19 14:13:10;;;;;;;3.77;2.70;;;34.60;54.30;;;;;;4951824;29;20220;-76
2022/07/19 14:15:35;;;;;;;4.83;2.80;;;34.60;54.20;;;;;;4952195;28;20664;-75
2022/07/19 14:18:01;;;;;;;3.07;2.87;;;34.70;54.40;;;;;;4952248;29;20447;-74
2022/07/19 14:20:27;;;;;;;4.87;2.40;;;34.70;53.90;;;;;;4952197;29;20185;-74